sensor_id;sensor_type;location;lat;lon;timestamp;pressure;altitude;pressure_sealevel;temperature;humidity
29379;BME280;16362;47.202;15.258;2024-03-25T00:01:57;95237.84;;;-0.62;100.00
29379;BME280;16362;47.202;15.258;2024-03-25T00:04:23;95232.75;;;-0.64;100.00
29379;BME280;16362;47.202;15.258;2024-03-25T00:06:49;95229.16;;;-0.63;100.00
29379;BME280;16362;47.202;15.258;2024-03-25T00:09:15;95220.09;;;-0.59;100.00
29379;BME280;16362;47.202;15.258;2024-03-25T00:11:41;95230.69;;;-0.60;100.00
29379;BME280;16362;47.202;15.258;2024-03-25T00:14:07;95233.00;;;-0.67;100.00
29379;BME280;16362;47.202;15.258;2024-03-25T00:16:34;95246.91;;;-0.76;100.00
29379;BME280;16362;47.202;15.258;2024-03-25T00:19:00;95256.28;;;-0.74;100.00
29379;BME280;16362;47.202;15.258;2024-03-25T00:21:26;95249.50;;;-0.76;100.00
29379;BME280;16362;47.202;15.258;2024-03-25T00:23:52;95250.41;;;-0.66;100.00
29379;BME280;16362;47.202;15.258;2024-03-25T00:26:18;95235.78;;;-0.69;100.00
29379;BME280;16362;47.202;15.258;2024-03-25T00:28:44;95233.00;;;-0.67;100.00
29379;BME280;16362;47.202;15.258;2024-03-25T00:31:11;95229.69;;;-0.69;100.00
29379;BME280;16362;47.202;15.258;2024-03-25T00:33:37;95242.13;;;-0.61;100.00
29379;BME280;16362;47.202;15.258;2024-03-25T00:36:03;95253.19;;;-0.58;100.00
29379;BME280;16362;47.202;15.258;2024-03-25T00:38:30;95239.69;;;-0.53;100.00
29379;BME280;16362;47.202;15.258;2024-03-25T00:41:00;95237.91;;;-0.53;100.00
29379;BME280;16362;47.202;15.258;2024-03-25T00:43:28;95231.97;;;-0.55;100.00
29379;BME280;16362;47.202;15.258;2024-03-25T00:45:58;95240.94;;;-0.47;100.00
29379;BME280;16362;47.202;15.258;2024-03-25T00:48:28;95235.47;;;-0.44;100.00
29379;BME280;16362;47.202;15.258;2024-03-25T00:50:56;95228.56;;;-0.45;100.00
29379;BME280;16362;47.202;15.258;2024-03-25T00:53:32;95220.69;;;-0.45;100.00
29379;BME280;16362;47.202;15.258;2024-03-25T00:56:04;95234.75;;;-0.46;100.00
29379;BME280;16362;47.202;15.258;2024-03-25T00:58:46;95217.13;;;-0.44;100.00
29379;BME280;16362;47.202;15.258;2024-03-25T01:01:24;95215.19;;;-0.42;100.00
29379;BME280;16362;47.202;15.258;2024-03-25T01:03:54;95218.47;;;-0.50;100.00
29379;BME280;16362;47.202;15.258;2024-03-25T01:06:21;95220.34;;;-0.62;100.00
29379;BME280;16362;47.202;15.258;2024-03-25T01:09:00;95209.59;;;-0.59;100.00
29379;BME280;16362;47.202;15.258;2024-03-25T01:11:27;95201.47;;;-0.56;100.00
29379;BME280;16362;47.202;15.258;2024-03-25T01:13:56;95208.81;;;-0.49;100.00
29379;BME280;16362;47.202;15.258;2024-03-25T01:16:23;95215.16;;;-0.52;100.00
29379;BME280;16362;47.202;15.258;2024-03-25T01:18:51;95210.16;;;-0.65;100.00
29379;BME280;16362;47.202;15.258;2024-03-25T01:21:18;95205.44;;;-0.61;100.00
29379;BME280;16362;47.202;15.258;2024-03-25T01:23:47;95204.06;;;-0.65;100.00
29379;BME280;16362;47.202;15.258;2024-03-25T01:26:12;95201.56;;;-0.67;100.00
29379;BME280;16362;47.202;15.258;2024-03-25T01:28:39;95214.41;;;-0.64;100.00
29379;BME280;16362;47.202;15.258;2024-03-25T01:31:06;95201.84;;;-0.70;100.00
29379;BME280;16362;47.202;15.258;2024-03-25T01:33:31;95213.00;;;-0.68;100.00
29379;BME280;16362;47.202;15.258;2024-03-25T01:35:59;95199.53;;;-0.63;100.00
29379;BME280;16362;47.202;15.258;2024-03-25T01:38:25;95199.13;;;-0.59;100.00
29379;BME280;16362;47.202;15.258;2024-03-25T01:40:51;95202.16;;;-0.63;100.00
29379;BME280;16362;47.202;15.258;2024-03-25T01:43:16;95214.78;;;-0.78;100.00
29379;BME280;16362;47.202;15.258;2024-03-25T01:45:42;95194.59;;;-0.88;100.00
29379;BME280;16362;47.202;15.258;2024-03-25T01:48:09;95201.50;;;-0.87;100.00
29379;BME280;16362;47.202;15.258;2024-03-25T01:50:40;95219.69;;;-0.85;100.00
29379;BME280;16362;47.202;15.258;2024-03-25T01:53:07;95211.44;;;-0.80;100.00
29379;BME280;16362;47.202;15.258;2024-03-25T01:55:34;95198.59;;;-0.83;100.00
29379;BME280;16362;47.202;15.258;2024-03-25T01:58:04;95211.66;;;-0.93;100.00
29379;BME280;16362;47.202;15.258;2024-03-25T02:00:31;95201.38;;;-1.06;100.00
29379;BME280;16362;47.202;15.258;2024-03-25T02:02:57;95197.94;;;-1.07;100.00
29379;BME280;16362;47.202;15.258;2024-03-25T02:05:23;95193.19;;;-1.13;100.00
29379;BME280;16362;47.202;15.258;2024-03-25T02:07:49;95200.28;;;-1.04;100.00
29379;BME280;16362;47.202;15.258;2024-03-25T02:10:15;95209.03;;;-1.14;100.00
29379;BME280;16362;47.202;15.258;2024-03-25T02:12:42;95211.53;;;-1.13;100.00
29379;BME280;16362;47.202;15.258;2024-03-25T02:15:09;95207.56;;;-1.07;100.00
29379;BME280;16362;47.202;15.258;2024-03-25T02:17:35;95203.31;;;-1.08;100.00
29379;BME280;16362;47.202;15.258;2024-03-25T02:20:04;95211.03;;;-1.07;100.00
29379;BME280;16362;47.202;15.258;2024-03-25T02:22:36;95214.97;;;-1.12;100.00
29379;BME280;16362;47.202;15.258;2024-03-25T02:25:05;95201.88;;;-1.12;100.00
29379;BME280;16362;47.202;15.258;2024-03-25T02:27:32;95211.53;;;-1.13;100.00
29379;BME280;16362;47.202;15.258;2024-03-25T02:30:09;95203.53;;;-1.11;100.00
29379;BME280;16362;47.202;15.258;2024-03-25T02:32:39;95205.22;;;-1.10;100.00
29379;BME280;16362;47.202;15.258;2024-03-25T02:35:08;95206.16;;;-1.11;100.00
29379;BME280;16362;47.202;15.258;2024-03-25T02:37:38;95210.31;;;-1.09;100.00
29379;BME280;16362;47.202;15.258;2024-03-25T02:40:06;95208.78;;;-1.11;100.00
29379;BME280;16362;47.202;15.258;2024-03-25T02:42:35;95211.41;;;-1.11;100.00
29379;BME280;16362;47.202;15.258;2024-03-25T02:45:02;95200.78;;;-1.10;100.00
29379;BME280;16362;47.202;15.258;2024-03-25T02:47:28;95202.59;;;-1.10;100.00
29379;BME280;16362;47.202;15.258;2024-03-25T02:49:56;95215.69;;;-1.10;100.00
29379;BME280;16362;47.202;15.258;2024-03-25T02:52:22;95217.22;;;-1.08;100.00
29379;BME280;16362;47.202;15.258;2024-03-25T02:54:48;95223.03;;;-1.04;100.00
29379;BME280;16362;47.202;15.258;2024-03-25T02:57:20;95227.28;;;-1.03;100.00
29379;BME280;16362;47.202;15.258;2024-03-25T02:59:46;95229.53;;;-0.98;100.00
29379;BME280;16362;47.202;15.258;2024-03-25T03:02:13;95228.47;;;-0.96;100.00
29379;BME280;16362;47.202;15.258;2024-03-25T03:04:40;95226.94;;;-0.98;100.00
29379;BME280;16362;47.202;15.258;2024-03-25T03:07:07;95226.94;;;-0.98;100.00
29379;BME280;16362;47.202;15.258;2024-03-25T03:09:32;95220.84;;;-0.99;100.00
29379;BME280;16362;47.202;15.258;2024-03-25T03:12:02;95225.84;;;-0.96;100.00
29379;BME280;16362;47.202;15.258;2024-03-25T03:14:28;95209.28;;;-0.96;100.00
29379;BME280;16362;47.202;15.258;2024-03-25T03:16:54;95220.47;;;-0.94;100.00
29379;BME280;16362;47.202;15.258;2024-03-25T03:19:25;95216.31;;;-0.97;100.00
29379;BME280;16362;47.202;15.258;2024-03-25T03:21:51;95219.31;;;-1.02;100.00
29379;BME280;16362;47.202;15.258;2024-03-25T03:24:18;95221.94;;;-1.02;100.00
29379;BME280;16362;47.202;15.258;2024-03-25T03:26:44;95233.16;;;-0.90;100.00
29379;BME280;16362;47.202;15.258;2024-03-25T03:29:10;95224.31;;;-0.98;100.00
29379;BME280;16362;47.202;15.258;2024-03-25T03:31:36;95232.03;;;-0.97;100.00
29379;BME280;16362;47.202;15.258;2024-03-25T03:34:02;95221.81;;;-1.00;100.00
29379;BME280;16362;47.202;15.258;2024-03-25T03:36:28;95225.97;;;-0.97;100.00
29379;BME280;16362;47.202;15.258;2024-03-25T03:38:54;95216.00;;;-1.04;100.00
29379;BME280;16362;47.202;15.258;2024-03-25T03:41:20;95223.28;;;-1.28;100.00
29379;BME280;16362;47.202;15.258;2024-03-25T03:43:46;95221.63;;;-1.29;100.00
29379;BME280;16362;47.202;15.258;2024-03-25T03:46:12;95219.81;;;-1.29;100.00
29379;BME280;16362;47.202;15.258;2024-03-25T03:48:38;95224.84;;;-1.26;100.00
29379;BME280;16362;47.202;15.258;2024-03-25T03:51:08;95233.06;;;-1.30;100.00
29379;BME280;16362;47.202;15.258;2024-03-25T03:53:34;95228.22;;;-1.35;100.00
29379;BME280;16362;47.202;15.258;2024-03-25T03:56:04;95228.69;;;-1.41;100.00
29379;BME280;16362;47.202;15.258;2024-03-25T03:58:38;95225.50;;;-1.45;100.00
29379;BME280;16362;47.202;15.258;2024-03-25T04:01:14;95233.94;;;-1.41;100.00
29379;BME280;16362;47.202;15.258;2024-03-25T04:03:42;95234.56;;;-1.49;100.00
29379;BME280;16362;47.202;15.258;2024-03-25T04:06:11;95237.56;;;-1.54;100.00
29379;BME280;16362;47.202;15.258;2024-03-25T04:08:39;95241.38;;;-1.58;100.00
29379;BME280;16362;47.202;15.258;2024-03-25T04:11:18;95230.47;;;-1.63;100.00
29379;BME280;16362;47.202;15.258;2024-03-25T04:13:46;95236.03;;;-1.56;100.00
29379;BME280;16362;47.202;15.258;2024-03-25T04:16:17;95240.44;;;-1.57;100.00
29379;BME280;16362;47.202;15.258;2024-03-25T04:18:44;95241.00;;;-1.53;100.00
29379;BME280;16362;47.202;15.258;2024-03-25T04:21:14;95248.97;;;-1.55;100.00
29379;BME280;16362;47.202;15.258;2024-03-25T04:23:45;95248.75;;;-1.51;100.00
29379;BME280;16362;47.202;15.258;2024-03-25T04:26:11;95250.03;;;-1.46;100.00
29379;BME280;16362;47.202;15.258;2024-03-25T04:28:44;95250.03;;;-1.46;100.00
29379;BME280;16362;47.202;15.258;2024-03-25T04:31:11;95252.38;;;-1.43;100.00
29379;BME280;16362;47.202;15.258;2024-03-25T04:33:37;95250.59;;;-1.42;100.00
29379;BME280;16362;47.202;15.258;2024-03-25T04:36:03;95258.69;;;-1.45;100.00
29379;BME280;16362;47.202;15.258;2024-03-25T04:38:30;95262.72;;;-1.41;100.00
29379;BME280;16362;47.202;15.258;2024-03-25T04:41:05;95259.41;;;-1.43;100.00
29379;BME280;16362;47.202;15.258;2024-03-25T04:43:32;95263.56;;;-1.41;100.00
29379;BME280;16362;47.202;15.258;2024-03-25T04:46:07;95263.19;;;-1.36;100.00
29379;BME280;16362;47.202;15.258;2024-03-25T04:48:39;95266.75;;;-1.37;100.00
29379;BME280;16362;47.202;15.258;2024-03-25T04:51:12;95257.13;;;-1.37;100.00
29379;BME280;16362;47.202;15.258;2024-03-25T04:53:39;95263.44;;;-1.39;100.00
29379;BME280;16362;47.202;15.258;2024-03-25T04:56:14;95270.91;;;-1.34;100.00
29379;BME280;16362;47.202;15.258;2024-03-25T04:58:41;95260.44;;;-1.34;100.00
29379;BME280;16362;47.202;15.258;2024-03-25T05:01:21;95260.44;;;-1.34;100.00
29379;BME280;16362;47.202;15.258;2024-03-25T05:03:46;95274.47;;;-1.36;100.00
29379;BME280;16362;47.202;15.258;2024-03-25T05:06:12;95273.66;;;-1.36;100.00
29379;BME280;16362;47.202;15.258;2024-03-25T05:08:38;95285.47;;;-1.42;100.00
29379;BME280;16362;47.202;15.258;2024-03-25T05:11:03;95269.97;;;-1.45;100.00
29379;BME280;16362;47.202;15.258;2024-03-25T05:13:29;95280.22;;;-1.42;100.00
29379;BME280;16362;47.202;15.258;2024-03-25T05:15:55;95281.75;;;-1.39;100.00
29379;BME280;16362;47.202;15.258;2024-03-25T05:18:21;95291.03;;;-1.35;100.00
29379;BME280;16362;47.202;15.258;2024-03-25T05:20:46;95288.41;;;-1.35;100.00
29379;BME280;16362;47.202;15.258;2024-03-25T05:23:12;95283.03;;;-1.33;100.00
29379;BME280;16362;47.202;15.258;2024-03-25T05:25:38;95281.25;;;-1.33;100.00
29379;BME280;16362;47.202;15.258;2024-03-25T05:28:04;95293.59;;;-1.24;100.00
29379;BME280;16362;47.202;15.258;2024-03-25T05:30:30;95288.94;;;-1.20;100.00
29379;BME280;16362;47.202;15.258;2024-03-25T05:32:55;95292.84;;;-1.14;100.00
29379;BME280;16362;47.202;15.258;2024-03-25T05:35:21;95297.00;;;-1.12;100.00
29379;BME280;16362;47.202;15.258;2024-03-25T05:37:47;95293.44;;;-1.11;100.00
29379;BME280;16362;47.202;15.258;2024-03-25T05:40:14;95309.47;;;-1.04;100.00
29379;BME280;16362;47.202;15.258;2024-03-25T05:42:40;95299.09;;;-1.06;100.00
29379;BME280;16362;47.202;15.258;2024-03-25T05:45:17;95313.16;;;-1.07;100.00
29379;BME280;16362;47.202;15.258;2024-03-25T05:47:43;95314.94;;;-1.07;100.00
29379;BME280;16362;47.202;15.258;2024-03-25T05:50:12;95312.91;;;-1.04;100.00
29379;BME280;16362;47.202;15.258;2024-03-25T05:52:43;95319.22;;;-1.06;100.00
29379;BME280;16362;47.202;15.258;2024-03-25T05:55:13;95319.94;;;-1.04;100.00
29379;BME280;16362;47.202;15.258;2024-03-25T05:57:51;95323.97;;;-1.00;100.00
29379;BME280;16362;47.202;15.258;2024-03-25T06:00:16;95322.16;;;-0.99;100.00
29379;BME280;16362;47.202;15.258;2024-03-25T06:02:44;95328.06;;;-0.86;100.00
29379;BME280;16362;47.202;15.258;2024-03-25T06:05:11;95339.56;;;-0.56;100.00
29379;BME280;16362;47.202;15.258;2024-03-25T06:07:38;95337.56;;;-0.43;100.00
29379;BME280;16362;47.202;15.258;2024-03-25T06:10:04;95346.31;;;-0.32;100.00
29379;BME280;16362;47.202;15.258;2024-03-25T06:12:32;95340.03;;;-0.20;100.00
29379;BME280;16362;47.202;15.258;2024-03-25T06:15:00;95330.94;;;-0.16;100.00
29379;BME280;16362;47.202;15.258;2024-03-25T06:17:28;95326.78;;;-0.19;100.00
29379;BME280;16362;47.202;15.258;2024-03-25T06:20:04;95336.19;;;-0.16;100.00
29379;BME280;16362;47.202;15.258;2024-03-25T06:22:30;95324.06;;;-0.07;100.00
29379;BME280;16362;47.202;15.258;2024-03-25T06:25:03;95340.59;;;-0.17;100.00
29379;BME280;16362;47.202;15.258;2024-03-25T06:27:29;95333.56;;;-0.16;100.00
29379;BME280;16362;47.202;15.258;2024-03-25T06:29:57;95336.88;;;-0.14;100.00
29379;BME280;16362;47.202;15.258;2024-03-25T06:32:42;95334.81;;;-0.10;100.00
29379;BME280;16362;47.202;15.258;2024-03-25T06:35:32;95333.09;;;0.00;100.00
29379;BME280;16362;47.202;15.258;2024-03-25T06:37:58;95333.75;;;0.02;100.00
29379;BME280;16362;47.202;15.258;2024-03-25T06:40:25;95320.50;;;0.04;100.00
29379;BME280;16362;47.202;15.258;2024-03-25T06:42:51;95325.47;;;0.07;100.00
29379;BME280;16362;47.202;15.258;2024-03-25T06:45:17;95325.09;;;0.11;100.00
29379;BME280;16362;47.202;15.258;2024-03-25T06:47:43;95322.78;;;0.18;100.00
29379;BME280;16362;47.202;15.258;2024-03-25T06:50:09;95321.94;;;0.17;100.00
29379;BME280;16362;47.202;15.258;2024-03-25T06:52:34;95329.16;;;0.25;100.00
29379;BME280;16362;47.202;15.258;2024-03-25T06:55:00;95336.63;;;0.30;100.00
29379;BME280;16362;47.202;15.258;2024-03-25T06:57:26;95339.94;;;0.32;100.00
29379;BME280;16362;47.202;15.258;2024-03-25T06:59:51;95347.44;;;0.37;100.00
29379;BME280;16362;47.202;15.258;2024-03-25T07:02:17;95329.31;;;0.43;100.00
29379;BME280;16362;47.202;15.258;2024-03-25T07:04:43;95335.28;;;0.45;100.00
29379;BME280;16362;47.202;15.258;2024-03-25T07:07:08;95334.31;;;0.46;100.00
29379;BME280;16362;47.202;15.258;2024-03-25T07:09:34;95343.88;;;0.57;100.00
29379;BME280;16362;47.202;15.258;2024-03-25T07:12:00;95337.91;;;0.65;100.00
29379;BME280;16362;47.202;15.258;2024-03-25T07:14:25;95336.44;;;0.72;100.00
29379;BME280;16362;47.202;15.258;2024-03-25T07:16:51;95345.13;;;0.73;100.00
29379;BME280;16362;47.202;15.258;2024-03-25T07:19:17;95339.50;;;0.77;100.00
29379;BME280;16362;47.202;15.258;2024-03-25T07:21:42;95352.34;;;0.90;100.00
29379;BME280;16362;47.202;15.258;2024-03-25T07:24:10;95351.53;;;0.90;100.00
29379;BME280;16362;47.202;15.258;2024-03-25T07:26:36;95354.69;;;0.93;100.00
29379;BME280;16362;47.202;15.258;2024-03-25T07:29:06;95352.75;;;0.86;100.00
29379;BME280;16362;47.202;15.258;2024-03-25T07:31:34;95346.25;;;0.99;100.00
29379;BME280;16362;47.202;15.258;2024-03-25T07:34:05;95351.94;;;1.05;100.00
29379;BME280;16362;47.202;15.258;2024-03-25T07:36:32;95345.44;;;0.99;100.00
29379;BME280;16362;47.202;15.258;2024-03-25T07:39:00;95352.22;;;1.11;100.00
29379;BME280;16362;47.202;15.258;2024-03-25T07:41:27;95346.53;;;1.06;100.00
29379;BME280;16362;47.202;15.258;2024-03-25T07:43:58;95347.78;;;1.22;100.00
29379;BME280;16362;47.202;15.258;2024-03-25T07:46:37;95353.81;;;1.51;100.00
29379;BME280;16362;47.202;15.258;2024-03-25T07:49:13;95349.69;;;1.59;100.00
29379;BME280;16362;47.202;15.258;2024-03-25T07:51:40;95347.97;;;1.67;100.00
29379;BME280;16362;47.202;15.258;2024-03-25T07:54:10;95341.22;;;2.02;100.00
29379;BME280;16362;47.202;15.258;2024-03-25T07:56:37;95331.72;;;2.57;100.00
29379;BME280;16362;47.202;15.258;2024-03-25T07:59:04;95343.00;;;2.85;100.00
29379;BME280;16362;47.202;15.258;2024-03-25T08:01:40;95338.72;;;3.20;100.00
29379;BME280;16362;47.202;15.258;2024-03-25T08:04:06;95337.06;;;3.37;100.00
29379;BME280;16362;47.202;15.258;2024-03-25T08:06:40;95337.59;;;3.41;100.00
29379;BME280;16362;47.202;15.258;2024-03-25T08:09:06;95339.53;;;3.39;100.00
29379;BME280;16362;47.202;15.258;2024-03-25T08:11:32;95339.59;;;3.47;100.00
29379;BME280;16362;47.202;15.258;2024-03-25T08:13:58;95342.56;;;3.44;100.00
29379;BME280;16362;47.202;15.258;2024-03-25T08:16:24;95351.00;;;3.30;100.00
29379;BME280;16362;47.202;15.258;2024-03-25T08:18:51;95345.13;;;3.36;100.00
29379;BME280;16362;47.202;15.258;2024-03-25T08:21:17;95351.53;;;3.33;100.00
29379;BME280;16362;47.202;15.258;2024-03-25T08:23:46;95334.00;;;3.50;100.00
29379;BME280;16362;47.202;15.258;2024-03-25T08:26:12;95336.06;;;3.57;100.00
29379;BME280;16362;47.202;15.258;2024-03-25T08:28:38;95338.50;;;3.76;100.00
29379;BME280;16362;47.202;15.258;2024-03-25T08:31:04;95330.66;;;3.66;100.00
29379;BME280;16362;47.202;15.258;2024-03-25T08:33:30;95332.91;;;3.79;100.00
29379;BME280;16362;47.202;15.258;2024-03-25T08:35:56;95326.84;;;4.13;100.00
29379;BME280;16362;47.202;15.258;2024-03-25T08:38:21;95323.09;;;4.24;100.00
29379;BME280;16362;47.202;15.258;2024-03-25T08:40:47;95325.25;;;4.29;100.00
29379;BME280;16362;47.202;15.258;2024-03-25T08:43:13;95317.88;;;4.41;100.00
29379;BME280;16362;47.202;15.258;2024-03-25T08:45:39;95314.81;;;4.62;100.00
29379;BME280;16362;47.202;15.258;2024-03-25T08:48:06;95316.53;;;4.96;100.00
29379;BME280;16362;47.202;15.258;2024-03-25T08:50:32;95312.25;;;5.52;100.00
29379;BME280;16362;47.202;15.258;2024-03-25T08:52:58;95314.53;;;5.97;100.00
29379;BME280;16362;47.202;15.258;2024-03-25T08:55:23;95296.28;;;6.10;100.00
29379;BME280;16362;47.202;15.258;2024-03-25T08:57:49;95300.13;;;6.47;100.00
29379;BME280;16362;47.202;15.258;2024-03-25T09:00:27;95303.50;;;6.72;99.64
29379;BME280;16362;47.202;15.258;2024-03-25T09:02:59;95299.47;;;7.08;94.46
29379;BME280;16362;47.202;15.258;2024-03-25T09:05:32;95288.88;;;7.46;64.11
29379;BME280;16362;47.202;15.258;2024-03-25T09:08:01;95297.00;;;7.68;68.70
29379;BME280;16362;47.202;15.258;2024-03-25T09:10:43;95285.34;;;7.54;62.90
29379;BME280;16362;47.202;15.258;2024-03-25T09:13:32;95286.94;;;7.63;65.33
29379;BME280;16362;47.202;15.258;2024-03-25T09:16:04;95291.09;;;7.96;66.68
29379;BME280;16362;47.202;15.258;2024-03-25T09:18:37;95289.97;;;8.20;58.80
29379;BME280;16362;47.202;15.258;2024-03-25T09:21:04;95278.63;;;8.26;59.56
29379;BME280;16362;47.202;15.258;2024-03-25T09:23:32;95286.41;;;8.57;58.23
29379;BME280;16362;47.202;15.258;2024-03-25T09:25:58;95285.31;;;8.37;55.95
29379;BME280;16362;47.202;15.258;2024-03-25T09:28:26;95285.06;;;8.47;55.94
29379;BME280;16362;47.202;15.258;2024-03-25T09:30:52;95281.13;;;8.79;59.32
29379;BME280;16362;47.202;15.258;2024-03-25T09:33:19;95283.41;;;9.19;61.06
29379;BME280;16362;47.202;15.258;2024-03-25T09:35:47;95280.09;;;9.17;55.01
29379;BME280;16362;47.202;15.258;2024-03-25T09:38:13;95289.75;;;9.39;59.63
29379;BME280;16362;47.202;15.258;2024-03-25T09:40:45;95289.81;;;9.46;51.42
29379;BME280;16362;47.202;15.258;2024-03-25T09:44:17;95284.53;;;9.53;50.91
29379;BME280;16362;47.202;15.258;2024-03-25T09:46:26;95286.63;;;9.36;53.01
29379;BME280;16362;47.202;15.258;2024-03-25T09:48:58;95290.69;;;9.32;55.98
29379;BME280;16362;47.202;15.258;2024-03-25T09:51:28;95277.69;;;9.43;59.87
29379;BME280;16362;47.202;15.258;2024-03-25T09:54:05;95281.38;;;9.42;49.57
29379;BME280;16362;47.202;15.258;2024-03-25T09:56:38;95273.78;;;9.39;50.86
29379;BME280;16362;47.202;15.258;2024-03-25T09:59:04;95280.53;;;9.64;54.03
29379;BME280;16362;47.202;15.258;2024-03-25T10:01:31;95287.63;;;9.56;51.58
29379;BME280;16362;47.202;15.258;2024-03-25T10:03:56;95298.13;;;9.65;51.81
29379;BME280;16362;47.202;15.258;2024-03-25T10:06:22;95292.88;;;9.71;48.62
29379;BME280;16362;47.202;15.258;2024-03-25T10:08:53;95290.03;;;9.73;46.46
29379;BME280;16362;47.202;15.258;2024-03-25T10:11:19;95289.78;;;9.96;47.98
29379;BME280;16362;47.202;15.258;2024-03-25T10:13:45;95274.81;;;10.30;53.49
29379;BME280;16362;47.202;15.258;2024-03-25T10:16:10;95276.19;;;10.19;48.87
29379;BME280;16362;47.202;15.258;2024-03-25T10:18:36;95269.75;;;10.35;47.97
29379;BME280;16362;47.202;15.258;2024-03-25T10:21:02;95276.66;;;10.71;49.14
29379;BME280;16362;47.202;15.258;2024-03-25T10:23:29;95268.84;;;10.63;49.06
29379;BME280;16362;47.202;15.258;2024-03-25T10:25:55;95269.84;;;10.55;47.47
29379;BME280;16362;47.202;15.258;2024-03-25T10:28:21;95264.47;;;10.42;47.63
29379;BME280;16362;47.202;15.258;2024-03-25T10:30:46;95262.78;;;10.06;44.15
29379;BME280;16362;47.202;15.258;2024-03-25T10:33:13;95276.06;;;9.99;46.49
29379;BME280;16362;47.202;15.258;2024-03-25T10:35:40;95264.84;;;10.10;49.42
29379;BME280;16362;47.202;15.258;2024-03-25T10:38:07;95277.22;;;10.18;49.18
29379;BME280;16362;47.202;15.258;2024-03-25T10:40:37;95287.31;;;9.94;44.89
29379;BME280;16362;47.202;15.258;2024-03-25T10:43:05;95284.34;;;9.54;44.47
29379;BME280;16362;47.202;15.258;2024-03-25T10:46:00;95284.84;;;9.43;45.47
29379;BME280;16362;47.202;15.258;2024-03-25T10:48:54;95279.91;;;9.40;49.07
29379;BME280;16362;47.202;15.258;2024-03-25T10:51:29;95271.75;;;9.70;43.99
29379;BME280;16362;47.202;15.258;2024-03-25T10:54:01;95254.16;;;10.04;47.09
29379;BME280;16362;47.202;15.258;2024-03-25T10:56:32;95259.97;;;10.14;46.31
29379;BME280;16362;47.202;15.258;2024-03-25T10:59:00;95261.44;;;10.23;44.81
29379;BME280;16362;47.202;15.258;2024-03-25T11:01:35;95252.94;;;10.06;44.36
29379;BME280;16362;47.202;15.258;2024-03-25T11:04:01;95267.53;;;9.82;43.29
29379;BME280;16362;47.202;15.258;2024-03-25T11:06:28;95266.13;;;9.80;46.63
29379;BME280;16362;47.202;15.258;2024-03-25T11:08:58;95250.66;;;10.03;43.80
29379;BME280;16362;47.202;15.258;2024-03-25T11:11:34;95249.28;;;10.14;45.39
29379;BME280;16362;47.202;15.258;2024-03-25T11:14:04;95245.56;;;10.37;43.35
29379;BME280;16362;47.202;15.258;2024-03-25T11:16:30;95236.25;;;10.74;47.38
29379;BME280;16362;47.202;15.258;2024-03-25T11:19:11;95237.38;;;11.07;43.35
29379;BME280;16362;47.202;15.258;2024-03-25T11:21:47;95237.53;;;10.92;41.34
29379;BME280;16362;47.202;15.258;2024-03-25T11:24:12;95245.09;;;10.82;40.86
29379;BME280;16362;47.202;15.258;2024-03-25T11:26:42;95237.06;;;10.75;41.78
29379;BME280;16362;47.202;15.258;2024-03-25T11:29:11;95241.13;;;10.57;40.63
29379;BME280;16362;47.202;15.258;2024-03-25T11:31:39;95234.81;;;10.30;39.83
29379;BME280;16362;47.202;15.258;2024-03-25T11:34:10;95232.44;;;10.07;42.58
29379;BME280;16362;47.202;15.258;2024-03-25T11:36:39;95234.47;;;10.05;41.97
29379;BME280;16362;47.202;15.258;2024-03-25T11:39:11;95224.88;;;10.10;43.72
29379;BME280;16362;47.202;15.258;2024-03-25T11:41:41;95240.13;;;10.23;43.91
29379;BME280;16362;47.202;15.258;2024-03-25T11:44:09;95230.91;;;10.26;42.27
29379;BME280;16362;47.202;15.258;2024-03-25T11:46:39;95235.69;;;10.02;39.79
29379;BME280;16362;47.202;15.258;2024-03-25T11:49:12;95230.75;;;9.99;39.76
29379;BME280;16362;47.202;15.258;2024-03-25T11:51:40;95221.22;;;9.83;41.54
29379;BME280;16362;47.202;15.258;2024-03-25T11:54:07;95213.63;;;9.80;41.41
29379;BME280;16362;47.202;15.258;2024-03-25T11:56:33;95211.38;;;9.77;42.49
29379;BME280;16362;47.202;15.258;2024-03-25T11:59:01;95204.78;;;9.73;44.63
29379;BME280;16362;47.202;15.258;2024-03-25T12:01:30;95213.06;;;9.91;49.82
29379;BME280;16362;47.202;15.258;2024-03-25T12:03:56;95211.50;;;10.04;44.38
29379;BME280;16362;47.202;15.258;2024-03-25T12:06:21;95202.09;;;10.08;43.64
29379;BME280;16362;47.202;15.258;2024-03-25T12:08:47;95193.16;;;10.22;41.24
29379;BME280;16362;47.202;15.258;2024-03-25T12:11:32;95203.78;;;10.16;42.23
29379;BME280;16362;47.202;15.258;2024-03-25T12:13:59;95196.75;;;10.01;43.46
29379;BME280;16362;47.202;15.258;2024-03-25T12:16:25;95199.06;;;9.76;41.95
29379;BME280;16362;47.202;15.258;2024-03-25T12:18:51;95202.69;;;9.68;42.14
29379;BME280;16362;47.202;15.258;2024-03-25T12:21:24;95198.63;;;9.72;43.65
29379;BME280;16362;47.202;15.258;2024-03-25T12:23:54;95188.56;;;10.03;43.68
29379;BME280;16362;47.202;15.258;2024-03-25T12:26:19;95180.75;;;10.08;43.16
29379;BME280;16362;47.202;15.258;2024-03-25T12:28:46;95181.81;;;10.07;42.74
29379;BME280;16362;47.202;15.258;2024-03-25T12:31:14;95176.91;;;10.17;43.45
29379;BME280;16362;47.202;15.258;2024-03-25T12:33:46;95178.19;;;10.28;42.65
29379;BME280;16362;47.202;15.258;2024-03-25T12:36:12;95176.75;;;10.25;40.88
29379;BME280;16362;47.202;15.258;2024-03-25T12:38:38;95175.50;;;10.21;42.92
29379;BME280;16362;47.202;15.258;2024-03-25T12:41:09;95180.63;;;10.16;41.32
29379;BME280;16362;47.202;15.258;2024-03-25T12:43:43;95177.50;;;10.06;42.62
29379;BME280;16362;47.202;15.258;2024-03-25T12:46:12;95181.97;;;9.99;43.73
29379;BME280;16362;47.202;15.258;2024-03-25T12:48:45;95179.06;;;9.93;42.07
29379;BME280;16362;47.202;15.258;2024-03-25T12:51:18;95170.47;;;9.98;42.00
29379;BME280;16362;47.202;15.258;2024-03-25T12:53:49;95169.25;;;10.01;42.31